sensor_id;sensor_type;location;lat;lon;timestamp;P1;durP1;ratioP1;P2;durP2;ratioP2
84048;SDS011;74136;51.684;7.862;2023-11-19T00:01:00;3.97;;;2.10;;
84048;SDS011;74136;51.684;7.862;2023-11-19T00:03:26;4.10;;;2.08;;
84048;SDS011;74136;51.684;7.862;2023-11-19T00:05:51;5.13;;;2.53;;
84048;SDS011;74136;51.684;7.862;2023-11-19T00:08:16;3.88;;;2.03;;
84048;SDS011;74136;51.684;7.862;2023-11-19T00:10:42;3.75;;;2.22;;
84048;SDS011;74136;51.684;7.862;2023-11-19T00:13:07;4.18;;;1.85;;
84048;SDS011;74136;51.684;7.862;2023-11-19T00:15:33;3.55;;;2.03;;
84048;SDS011;74136;51.684;7.862;2023-11-19T00:17:58;4.18;;;1.70;;
84048;SDS011;74136;51.684;7.862;2023-11-19T00:20:23;5.82;;;2.08;;
84048;SDS011;74136;51.684;7.862;2023-11-19T00:22:49;4.45;;;1.80;;
84048;SDS011;74136;51.684;7.862;2023-11-19T00:25:19;3.78;;;1.85;;
84048;SDS011;74136;51.684;7.862;2023-11-19T00:27:46;2.50;;;1.30;;
84048;SDS011;74136;51.684;7.862;2023-11-19T00:30:12;3.25;;;1.40;;
84048;SDS011;74136;51.684;7.862;2023-11-19T00:32:39;2.35;;;1.50;;
84048;SDS011;74136;51.684;7.862;2023-11-19T00:35:05;4.38;;;1.60;;
84048;SDS011;74136;51.684;7.862;2023-11-19T00:37:31;3.72;;;1.70;;
84048;SDS011;74136;51.684;7.862;2023-11-19T00:39:57;2.72;;;1.75;;
84048;SDS011;74136;51.684;7.862;2023-11-19T00:42:23;6.22;;;1.83;;
84048;SDS011;74136;51.684;7.862;2023-11-19T00:44:52;2.10;;;1.30;;
84048;SDS011;74136;51.684;7.862;2023-11-19T00:47:17;3.10;;;1.60;;
84048;SDS011;74136;51.684;7.862;2023-11-19T00:49:47;3.42;;;1.73;;
84048;SDS011;74136;51.684;7.862;2023-11-19T00:52:14;1.92;;;1.40;;
84048;SDS011;74136;51.684;7.862;2023-11-19T00:54:40;4.60;;;1.73;;
84048;SDS011;74136;51.684;7.862;2023-11-19T00:57:05;4.10;;;1.60;;
84048;SDS011;74136;51.684;7.862;2023-11-19T00:59:31;2.95;;;1.60;;
84048;SDS011;74136;51.684;7.862;2023-11-19T01:01:56;2.33;;;1.73;;
84048;SDS011;74136;51.684;7.862;2023-11-19T01:04:21;2.38;;;1.58;;
84048;SDS011;74136;51.684;7.862;2023-11-19T01:06:47;2.53;;;1.77;;
84048;SDS011;74136;51.684;7.862;2023-11-19T01:09:12;4.07;;;1.80;;
84048;SDS011;74136;51.684;7.862;2023-11-19T01:11:37;4.97;;;2.05;;
84048;SDS011;74136;51.684;7.862;2023-11-19T01:14:04;2.72;;;1.73;;
84048;SDS011;74136;51.684;7.862;2023-11-19T01:16:29;3.63;;;2.00;;
84048;SDS011;74136;51.684;7.862;2023-11-19T01:18:55;2.50;;;1.90;;
84048;SDS011;74136;51.684;7.862;2023-11-19T01:21:21;4.22;;;2.22;;
84048;SDS011;74136;51.684;7.862;2023-11-19T01:23:47;4.30;;;2.13;;
84048;SDS011;74136;51.684;7.862;2023-11-19T01:26:12;4.13;;;2.53;;
84048;SDS011;74136;51.684;7.862;2023-11-19T01:28:37;3.13;;;2.13;;
84048;SDS011;74136;51.684;7.862;2023-11-19T01:31:04;4.80;;;2.50;;
84048;SDS011;74136;51.684;7.862;2023-11-19T01:33:30;5.05;;;2.60;;
84048;SDS011;74136;51.684;7.862;2023-11-19T01:35:56;5.50;;;2.85;;
84048;SDS011;74136;51.684;7.862;2023-11-19T01:38:23;3.72;;;2.70;;
84048;SDS011;74136;51.684;7.862;2023-11-19T01:40:49;7.10;;;3.50;;
84048;SDS011;74136;51.684;7.862;2023-11-19T01:43:30;6.53;;;3.92;;
84048;SDS011;74136;51.684;7.862;2023-11-19T01:46:00;9.32;;;4.20;;
84048;SDS011;74136;51.684;7.862;2023-11-19T01:48:26;6.65;;;4.50;;
84048;SDS011;74136;51.684;7.862;2023-11-19T01:50:51;9.38;;;4.90;;
84048;SDS011;74136;51.684;7.862;2023-11-19T01:53:18;7.93;;;5.53;;
84048;SDS011;74136;51.684;7.862;2023-11-19T01:55:44;10.35;;;5.63;;
84048;SDS011;74136;51.684;7.862;2023-11-19T01:58:11;9.75;;;6.68;;
84048;SDS011;74136;51.684;7.862;2023-11-19T02:00:37;12.52;;;7.10;;
84048;SDS011;74136;51.684;7.862;2023-11-19T02:03:03;11.95;;;6.72;;
84048;SDS011;74136;51.684;7.862;2023-11-19T02:05:33;14.02;;;7.68;;
84048;SDS011;74136;51.684;7.862;2023-11-19T02:07:59;12.57;;;7.55;;
84048;SDS011;74136;51.684;7.862;2023-11-19T02:10:25;11.98;;;7.65;;
84048;SDS011;74136;51.684;7.862;2023-11-19T02:12:51;14.52;;;8.48;;
84048;SDS011;74136;51.684;7.862;2023-11-19T02:15:16;13.73;;;7.53;;
84048;SDS011;74136;51.684;7.862;2023-11-19T02:17:44;12.55;;;8.05;;
84048;SDS011;74136;51.684;7.862;2023-11-19T02:20:09;14.50;;;8.18;;
84048;SDS011;74136;51.684;7.862;2023-11-19T02:22:39;12.85;;;7.68;;
84048;SDS011;74136;51.684;7.862;2023-11-19T02:25:06;13.48;;;8.23;;
84048;SDS011;74136;51.684;7.862;2023-11-19T02:30:20;10.38;;;7.35;;
84048;SDS011;74136;51.684;7.862;2023-11-19T02:32:46;10.52;;;7.45;;
84048;SDS011;74136;51.684;7.862;2023-11-19T02:35:13;11.85;;;6.78;;
84048;SDS011;74136;51.684;7.862;2023-11-19T02:37:38;10.63;;;5.70;;
84048;SDS011;74136;51.684;7.862;2023-11-19T02:40:04;8.18;;;5.50;;
84048;SDS011;74136;51.684;7.862;2023-11-19T02:42:30;8.52;;;5.72;;
84048;SDS011;74136;51.684;7.862;2023-11-19T02:44:56;8.65;;;5.60;;
84048;SDS011;74136;51.684;7.862;2023-11-19T02:47:21;8.38;;;5.07;;
84048;SDS011;74136;51.684;7.862;2023-11-19T02:49:49;9.93;;;5.07;;
84048;SDS011;74136;51.684;7.862;2023-11-19T02:52:14;7.07;;;4.57;;
84048;SDS011;74136;51.684;7.862;2023-11-19T02:54:40;6.53;;;4.35;;
84048;SDS011;74136;51.684;7.862;2023-11-19T02:57:06;6.22;;;4.47;;
84048;SDS011;74136;51.684;7.862;2023-11-19T02:59:33;6.25;;;3.40;;
84048;SDS011;74136;51.684;7.862;2023-11-19T03:02:04;4.82;;;3.28;;
84048;SDS011;74136;51.684;7.862;2023-11-19T03:04:32;6.10;;;3.70;;
84048;SDS011;74136;51.684;7.862;2023-11-19T03:06:58;6.57;;;3.53;;
84048;SDS011;74136;51.684;7.862;2023-11-19T03:09:24;5.35;;;3.28;;
84048;SDS011;74136;51.684;7.862;2023-11-19T03:11:49;6.72;;;3.42;;
84048;SDS011;74136;51.684;7.862;2023-11-19T03:14:15;7.47;;;4.03;;
84048;SDS011;74136;51.684;7.862;2023-11-19T03:16:40;8.27;;;3.83;;
84048;SDS011;74136;51.684;7.862;2023-11-19T03:19:06;8.15;;;3.58;;
84048;SDS011;74136;51.684;7.862;2023-11-19T03:21:31;6.00;;;3.15;;
84048;SDS011;74136;51.684;7.862;2023-11-19T03:23:59;6.50;;;3.85;;
84048;SDS011;74136;51.684;7.862;2023-11-19T03:28:51;5.97;;;3.28;;
84048;SDS011;74136;51.684;7.862;2023-11-19T03:31:16;7.85;;;3.70;;
84048;SDS011;74136;51.684;7.862;2023-11-19T03:33:42;7.22;;;3.30;;
84048;SDS011;74136;51.684;7.862;2023-11-19T03:36:07;8.73;;;3.38;;
84048;SDS011;74136;51.684;7.862;2023-11-19T03:38:34;8.77;;;3.72;;
84048;SDS011;74136;51.684;7.862;2023-11-19T03:40:59;8.52;;;2.80;;
84048;SDS011;74136;51.684;7.862;2023-11-19T03:43:25;9.32;;;3.35;;
84048;SDS011;74136;51.684;7.862;2023-11-19T03:45:50;6.47;;;3.08;;
84048;SDS011;74136;51.684;7.862;2023-11-19T03:48:15;10.43;;;3.17;;
84048;SDS011;74136;51.684;7.862;2023-11-19T03:50:41;12.45;;;3.65;;
84048;SDS011;74136;51.684;7.862;2023-11-19T03:53:07;5.93;;;2.92;;
84048;SDS011;74136;51.684;7.862;2023-11-19T03:55:32;6.90;;;2.70;;
84048;SDS011;74136;51.684;7.862;2023-11-19T03:57:58;9.50;;;3.30;;
84048;SDS011;74136;51.684;7.862;2023-11-19T04:00:23;15.30;;;3.65;;
84048;SDS011;74136;51.684;7.862;2023-11-19T04:02:48;8.77;;;2.60;;
84048;SDS011;74136;51.684;7.862;2023-11-19T04:05:14;11.10;;;3.53;;
84048;SDS011;74136;51.684;7.862;2023-11-19T04:07:39;11.50;;;3.22;;
84048;SDS011;74136;51.684;7.862;2023-11-19T04:10:05;11.93;;;3.58;;
84048;SDS011;74136;51.684;7.862;2023-11-19T04:12:30;10.13;;;3.20;;
84048;SDS011;74136;51.684;7.862;2023-11-19T04:14:56;12.88;;;3.35;;
84048;SDS011;74136;51.684;7.862;2023-11-19T04:17:21;9.50;;;3.42;;
84048;SDS011;74136;51.684;7.862;2023-11-19T04:19:48;9.05;;;3.10;;
84048;SDS011;74136;51.684;7.862;2023-11-19T04:22:13;9.70;;;3.15;;
84048;SDS011;74136;51.684;7.862;2023-11-19T04:24:39;10.50;;;3.42;;
84048;SDS011;74136;51.684;7.862;2023-11-19T04:27:05;11.30;;;3.20;;
84048;SDS011;74136;51.684;7.862;2023-11-19T04:29:31;9.68;;;3.30;;
84048;SDS011;74136;51.684;7.862;2023-11-19T04:31:57;13.55;;;3.88;;
84048;SDS011;74136;51.684;7.862;2023-11-19T04:34:22;10.75;;;3.35;;
84048;SDS011;74136;51.684;7.862;2023-11-19T04:36:48;22.05;;;4.00;;
84048;SDS011;74136;51.684;7.862;2023-11-19T04:39:14;10.70;;;3.30;;
84048;SDS011;74136;51.684;7.862;2023-11-19T04:41:47;12.52;;;3.97;;
84048;SDS011;74136;51.684;7.862;2023-11-19T04:44:18;15.98;;;3.40;;
84048;SDS011;74136;51.684;7.862;2023-11-19T04:46:44;12.50;;;3.97;;
84048;SDS011;74136;51.684;7.862;2023-11-19T04:49:10;10.25;;;3.13;;
84048;SDS011;74136;51.684;7.862;2023-11-19T04:51:39;17.05;;;3.88;;
84048;SDS011;74136;51.684;7.862;2023-11-19T04:54:09;11.40;;;4.00;;
84048;SDS011;74136;51.684;7.862;2023-11-19T04:56:38;13.52;;;3.00;;
84048;SDS011;74136;51.684;7.862;2023-11-19T04:59:04;18.40;;;4.20;;
84048;SDS011;74136;51.684;7.862;2023-11-19T05:01:34;20.20;;;4.43;;
84048;SDS011;74136;51.684;7.862;2023-11-19T05:04:00;13.77;;;3.58;;
84048;SDS011;74136;51.684;7.862;2023-11-19T05:06:30;18.10;;;4.35;;
84048;SDS011;74136;51.684;7.862;2023-11-19T05:08:56;17.23;;;3.78;;
84048;SDS011;74136;51.684;7.862;2023-11-19T05:11:26;18.52;;;3.75;;
84048;SDS011;74136;51.684;7.862;2023-11-19T05:13:53;18.58;;;3.67;;
84048;SDS011;74136;51.684;7.862;2023-11-19T05:16:18;14.23;;;3.55;;
84048;SDS011;74136;51.684;7.862;2023-11-19T05:18:45;13.20;;;3.42;;
84048;SDS011;74136;51.684;7.862;2023-11-19T05:21:11;19.98;;;4.18;;
84048;SDS011;74136;51.684;7.862;2023-11-19T05:23:36;16.85;;;4.43;;
84048;SDS011;74136;51.684;7.862;2023-11-19T05:26:02;18.10;;;4.20;;
84048;SDS011;74136;51.684;7.862;2023-11-19T05:28:27;17.48;;;3.22;;
84048;SDS011;74136;51.684;7.862;2023-11-19T05:30:53;13.27;;;3.03;;
84048;SDS011;74136;51.684;7.862;2023-11-19T05:33:18;17.90;;;3.45;;
84048;SDS011;74136;51.684;7.862;2023-11-19T05:35:43;19.15;;;3.83;;
84048;SDS011;74136;51.684;7.862;2023-11-19T05:38:09;21.15;;;3.50;;
84048;SDS011;74136;51.684;7.862;2023-11-19T05:40:34;18.98;;;3.30;;
84048;SDS011;74136;51.684;7.862;2023-11-19T05:43:00;16.35;;;3.28;;
84048;SDS011;74136;51.684;7.862;2023-11-19T05:45:25;26.50;;;3.72;;
84048;SDS011;74136;51.684;7.862;2023-11-19T05:47:51;18.75;;;4.25;;
84048;SDS011;74136;51.684;7.862;2023-11-19T05:50:17;16.80;;;3.33;;
84048;SDS011;74136;51.684;7.862;2023-11-19T05:52:43;21.48;;;4.20;;
84048;SDS011;74136;51.684;7.862;2023-11-19T05:55:08;24.52;;;3.88;;
84048;SDS011;74136;51.684;7.862;2023-11-19T05:57:35;19.63;;;3.50;;
84048;SDS011;74136;51.684;7.862;2023-11-19T06:00:02;26.33;;;3.72;;
84048;SDS011;74136;51.684;7.862;2023-11-19T06:02:28;24.45;;;3.72;;
84048;SDS011;74136;51.684;7.862;2023-11-19T06:04:53;18.75;;;3.92;;
84048;SDS011;74136;51.684;7.862;2023-11-19T06:07:19;19.73;;;3.65;;
84048;SDS011;74136;51.684;7.862;2023-11-19T06:09:45;21.50;;;4.60;;
84048;SDS011;74136;51.684;7.862;2023-11-19T06:12:10;19.58;;;3.50;;
84048;SDS011;74136;51.684;7.862;2023-11-19T06:14:35;15.45;;;3.88;;
84048;SDS011;74136;51.684;7.862;2023-11-19T06:17:01;24.38;;;4.00;;
84048;SDS011;74136;51.684;7.862;2023-11-19T06:19:26;26.20;;;4.35;;
84048;SDS011;74136;51.684;7.862;2023-11-19T06:21:51;15.25;;;3.28;;
84048;SDS011;74136;51.684;7.862;2023-11-19T06:24:17;19.30;;;4.28;;
84048;SDS011;74136;51.684;7.862;2023-11-19T06:26:43;18.88;;;4.20;;
84048;SDS011;74136;51.684;7.862;2023-11-19T06:29:08;21.70;;;4.97;;
84048;SDS011;74136;51.684;7.862;2023-11-19T06:31:33;18.70;;;3.75;;
84048;SDS011;74136;51.684;7.862;2023-11-19T06:33:59;32.95;;;5.00;;
84048;SDS011;74136;51.684;7.862;2023-11-19T06:36:24;22.63;;;4.30;;
84048;SDS011;74136;51.684;7.862;2023-11-19T06:38:49;25.52;;;4.28;;
84048;SDS011;74136;51.684;7.862;2023-11-19T06:41:15;27.98;;;4.53;;
84048;SDS011;74136;51.684;7.862;2023-11-19T06:43:40;23.02;;;4.20;;
84048;SDS011;74136;51.684;7.862;2023-11-19T06:46:05;21.05;;;4.47;;
84048;SDS011;74136;51.684;7.862;2023-11-19T06:48:39;18.70;;;4.10;;
84048;SDS011;74136;51.684;7.862;2023-11-19T06:51:04;24.52;;;3.85;;
84048;SDS011;74136;51.684;7.862;2023-11-19T06:53:30;21.00;;;3.65;;
84048;SDS011;74136;51.684;7.862;2023-11-19T06:55:55;25.83;;;4.75;;
84048;SDS011;74136;51.684;7.862;2023-11-19T06:58:22;22.48;;;4.25;;
84048;SDS011;74136;51.684;7.862;2023-11-19T07:00:47;19.77;;;3.55;;
84048;SDS011;74136;51.684;7.862;2023-11-19T07:03:14;20.73;;;3.80;;
84048;SDS011;74136;51.684;7.862;2023-11-19T07:05:40;24.02;;;4.65;;
84048;SDS011;74136;51.684;7.862;2023-11-19T07:08:06;21.30;;;3.92;;
84048;SDS011;74136;51.684;7.862;2023-11-19T07:10:34;24.25;;;4.32;;
84048;SDS011;74136;51.684;7.862;2023-11-19T07:12:59;24.85;;;3.45;;
84048;SDS011;74136;51.684;7.862;2023-11-19T07:15:25;22.30;;;3.58;;
84048;SDS011;74136;51.684;7.862;2023-11-19T07:17:50;23.60;;;4.18;;
84048;SDS011;74136;51.684;7.862;2023-11-19T07:20:16;15.18;;;3.28;;
84048;SDS011;74136;51.684;7.862;2023-11-19T07:22:44;33.58;;;5.65;;
84048;SDS011;74136;51.684;7.862;2023-11-19T07:25:13;18.80;;;3.53;;
84048;SDS011;74136;51.684;7.862;2023-11-19T07:27:39;17.00;;;3.55;;
84048;SDS011;74136;51.684;7.862;2023-11-19T07:30:06;19.23;;;3.13;;
84048;SDS011;74136;51.684;7.862;2023-11-19T07:32:34;26.30;;;4.85;;
84048;SDS011;74136;51.684;7.862;2023-11-19T07:34:59;18.75;;;4.43;;
84048;SDS011;74136;51.684;7.862;2023-11-19T07:37:25;25.05;;;3.72;;
84048;SDS011;74136;51.684;7.862;2023-11-19T07:39:50;21.50;;;5.20;;
84048;SDS011;74136;51.684;7.862;2023-11-19T07:42:16;18.02;;;3.60;;
84048;SDS011;74136;51.684;7.862;2023-11-19T07:44:42;17.75;;;3.63;;
84048;SDS011;74136;51.684;7.862;2023-11-19T07:47:08;19.58;;;5.45;;
84048;SDS011;74136;51.684;7.862;2023-11-19T07:49:34;20.63;;;3.60;;
84048;SDS011;74136;51.684;7.862;2023-11-19T07:51:59;24.60;;;4.18;;
84048;SDS011;74136;51.684;7.862;2023-11-19T07:54:24;23.85;;;4.47;;
84048;SDS011;74136;51.684;7.862;2023-11-19T07:56:50;22.33;;;4.25;;
84048;SDS011;74136;51.684;7.862;2023-11-19T07:59:15;21.73;;;5.00;;
84048;SDS011;74136;51.684;7.862;2023-11-19T08:01:41;24.10;;;5.05;;
84048;SDS011;74136;51.684;7.862;2023-11-19T08:04:06;23.58;;;4.30;;
84048;SDS011;74136;51.684;7.862;2023-11-19T08:06:32;22.45;;;5.13;;
84048;SDS011;74136;51.684;7.862;2023-11-19T08:08:57;24.50;;;4.30;;
84048;SDS011;74136;51.684;7.862;2023-11-19T08:11:23;17.27;;;3.55;;
84048;SDS011;74136;51.684;7.862;2023-11-19T08:13:49;19.25;;;4.32;;
84048;SDS011;74136;51.684;7.862;2023-11-19T08:16:14;20.70;;;3.75;;
84048;SDS011;74136;51.684;7.862;2023-11-19T08:18:41;21.27;;;3.95;;
84048;SDS011;74136;51.684;7.862;2023-11-19T08:21:08;22.95;;;3.72;;
84048;SDS011;74136;51.684;7.862;2023-11-19T08:23:33;27.90;;;4.60;;
84048;SDS011;74136;51.684;7.862;2023-11-19T08:25:59;23.77;;;4.45;;
84048;SDS011;74136;51.684;7.862;2023-11-19T08:28:25;19.23;;;3.80;;
84048;SDS011;74136;51.684;7.862;2023-11-19T08:30:50;23.77;;;3.75;;
84048;SDS011;74136;51.684;7.862;2023-11-19T08:33:15;20.73;;;4.22;;
84048;SDS011;74136;51.684;7.862;2023-11-19T08:35:41;22.25;;;3.83;;
84048;SDS011;74136;51.684;7.862;2023-11-19T08:38:07;32.40;;;4.32;;
84048;SDS011;74136;51.684;7.862;2023-11-19T08:40:32;32.40;;;5.07;;
84048;SDS011;74136;51.684;7.862;2023-11-19T08:42:57;24.02;;;3.67;;
84048;SDS011;74136;51.684;7.862;2023-11-19T08:45:23;20.63;;;3.47;;
84048;SDS011;74136;51.684;7.862;2023-11-19T08:47:48;23.98;;;4.00;;
84048;SDS011;74136;51.684;7.862;2023-11-19T08:50:14;19.88;;;4.03;;
84048;SDS011;74136;51.684;7.862;2023-11-19T08:52:39;15.30;;;3.60;;
84048;SDS011;74136;51.684;7.862;2023-11-19T08:55:04;16.85;;;2.67;;
84048;SDS011;74136;51.684;7.862;2023-11-19T08:57:30;26.25;;;4.90;;
84048;SDS011;74136;51.684;7.862;2023-11-19T08:59:59;18.00;;;2.53;;
84048;SDS011;74136;51.684;7.862;2023-11-19T09:02:24;23.88;;;3.70;;
84048;SDS011;74136;51.684;7.862;2023-11-19T09:04:50;24.98;;;4.55;;
84048;SDS011;74136;51.684;7.862;2023-11-19T09:07:16;21.90;;;3.15;;
84048;SDS011;74136;51.684;7.862;2023-11-19T09:09:42;29.52;;;4.25;;
84048;SDS011;74136;51.684;7.862;2023-11-19T09:12:07;22.25;;;4.07;;
84048;SDS011;74136;51.684;7.862;2023-11-19T09:14:32;17.92;;;3.13;;
84048;SDS011;74136;51.684;7.862;2023-11-19T09:16:58;26.20;;;3.42;;
84048;SDS011;74136;51.684;7.862;2023-11-19T09:19:24;24.60;;;4.68;;
84048;SDS011;74136;51.684;7.862;2023-11-19T09:21:49;19.33;;;3.38;;
84048;SDS011;74136;51.684;7.862;2023-11-19T09:24:15;19.10;;;3.47;;
84048;SDS011;74136;51.684;7.862;2023-11-19T09:26:40;21.67;;;4.57;;
84048;SDS011;74136;51.684;7.862;2023-11-19T09:29:09;25.40;;;3.72;;
84048;SDS011;74136;51.684;7.862;2023-11-19T09:31:34;21.02;;;3.50;;
84048;SDS011;74136;51.684;7.862;2023-11-19T09:34:00;29.17;;;4.45;;
84048;SDS011;74136;51.684;7.862;2023-11-19T09:36:26;25.58;;;4.13;;
84048;SDS011;74136;51.684;7.862;2023-11-19T09:38:51;28.73;;;5.88;;
84048;SDS011;74136;51.684;7.862;2023-11-19T09:41:16;28.38;;;3.80;;
84048;SDS011;74136;51.684;7.862;2023-11-19T09:43:44;24.15;;;4.60;;
84048;SDS011;74136;51.684;7.862;2023-11-19T09:46:10;24.50;;;4.35;;
84048;SDS011;74136;51.684;7.862;2023-11-19T09:48:38;23.35;;;3.50;;
84048;SDS011;74136;51.684;7.862;2023-11-19T09:51:06;27.75;;;5.22;;
84048;SDS011;74136;51.684;7.862;2023-11-19T09:53:33;24.60;;;3.60;;
84048;SDS011;74136;51.684;7.862;2023-11-19T09:56:00;26.65;;;3.88;;
84048;SDS011;74136;51.684;7.862;2023-11-19T09:58:28;23.25;;;4.68;;
84048;SDS011;74136;51.684;7.862;2023-11-19T10:00:54;24.17;;;3.67;;
84048;SDS011;74136;51.684;7.862;2023-11-19T10:03:19;24.83;;;4.75;;
84048;SDS011;74136;51.684;7.862;2023-11-19T10:05:47;25.00;;;3.97;;
84048;SDS011;74136;51.684;7.862;2023-11-19T10:08:13;21.65;;;2.97;;
84048;SDS011;74136;51.684;7.862;2023-11-19T10:10:39;30.02;;;5.00;;
84048;SDS011;74136;51.684;7.862;2023-11-19T10:13:04;22.75;;;3.38;;
84048;SDS011;74136;51.684;7.862;2023-11-19T10:15:31;25.80;;;4.45;;
84048;SDS011;74136;51.684;7.862;2023-11-19T10:18:01;21.60;;;4.07;;
84048;SDS011;74136;51.684;7.862;2023-11-19T10:20:26;18.50;;;4.05;;
84048;SDS011;74136;51.684;7.862;2023-11-19T10:22:54;22.08;;;3.78;;
84048;SDS011;74136;51.684;7.862;2023-11-19T10:27:53;25.13;;;3.58;;
84048;SDS011;74136;51.684;7.862;2023-11-19T10:30:22;23.13;;;3.50;;
84048;SDS011;74136;51.684;7.862;2023-11-19T10:33:03;22.27;;;4.07;;
84048;SDS011;74136;51.684;7.862;2023-11-19T10:35:35;26.48;;;4.13;;
84048;SDS011;74136;51.684;7.862;2023-11-19T10:38:13;19.35;;;2.85;;
84048;SDS011;74136;51.684;7.862;2023-11-19T10:40:40;25.10;;;3.67;;
84048;SDS011;74136;51.684;7.862;2023-11-19T10:43:07;27.15;;;5.15;;
84048;SDS011;74136;51.684;7.862;2023-11-19T10:45:33;18.80;;;3.28;;
84048;SDS011;74136;51.684;7.862;2023-11-19T10:47:59;27.67;;;4.45;;
84048;SDS011;74136;51.684;7.862;2023-11-19T10:50:24;26.45;;;4.00;;
84048;SDS011;74136;51.684;7.862;2023-11-19T10:52:51;24.58;;;4.35;;
84048;SDS011;74136;51.684;7.862;2023-11-19T10:55:21;20.23;;;3.35;;
84048;SDS011;74136;51.684;7.862;2023-11-19T10:58:01;18.05;;;3.45;;
84048;SDS011;74136;51.684;7.862;2023-11-19T11:00:34;26.90;;;3.83;;
84048;SDS011;74136;51.684;7.862;2023-11-19T11:03:11;26.20;;;2.70;;
84048;SDS011;74136;51.684;7.862;2023-11-19T11:05:41;26.45;;;3.28;;
84048;SDS011;74136;51.684;7.862;2023-11-19T11:08:07;25.80;;;4.60;;
84048;SDS011;74136;51.684;7.862;2023-11-19T11:10:35;25.90;;;3.58;;
84048;SDS011;74136;51.684;7.862;2023-11-19T11:13:20;27.83;;;4.88;;
84048;SDS011;74136;51.684;7.862;2023-11-19T11:15:49;24.70;;;3.88;;
84048;SDS011;74136;51.684;7.862;2023-11-19T11:18:15;26.65;;;4.93;;
84048;SDS011;74136;51.684;7.862;2023-11-19T11:20:44;20.90;;;3.67;;
84048;SDS011;74136;51.684;7.862;2023-11-19T11:25:58;25.80;;;4.45;;
84048;SDS011;74136;51.684;7.862;2023-11-19T11:36:58;30.77;;;4.80;;
84048;SDS011;74136;51.684;7.862;2023-11-19T11:39:35;29.60;;;3.00;;
84048;SDS011;74136;51.684;7.862;2023-11-19T11:44:59;22.52;;;3.75;;
84048;SDS011;74136;51.684;7.862;2023-11-19T11:50:07;17.50;;;4.13;;
84048;SDS011;74136;51.684;7.862;2023-11-19T11:53:12;24.33;;;3.85;;
84048;SDS011;74136;51.684;7.862;2023-11-19T11:55:33;21.08;;;4.53;;
84048;SDS011;74136;51.684;7.862;2023-11-19T11:58:06;22.23;;;3.65;;
84048;SDS011;74136;51.684;7.862;2023-11-19T12:03:05;19.23;;;3.75;;
84048;SDS011;74136;51.684;7.862;2023-11-19T12:05:32;23.45;;;4.20;;
84048;SDS011;74136;51.684;7.862;2023-11-19T12:08:01;30.27;;;3.47;;
84048;SDS011;74136;51.684;7.862;2023-11-19T12:13:02;20.05;;;3.63;;
84048;SDS011;74136;51.684;7.862;2023-11-19T12:15:31;27.50;;;4.57;;
84048;SDS011;74136;51.684;7.862;2023-11-19T12:17:56;30.27;;;4.90;;
84048;SDS011;74136;51.684;7.862;2023-11-19T12:20:23;24.48;;;3.65;;
84048;SDS011;74136;51.684;7.862;2023-11-19T12:22:54;29.40;;;5.30;;
84048;SDS011;74136;51.684;7.862;2023-11-19T12:25:20;24.80;;;3.85;;
84048;SDS011;74136;51.684;7.862;2023-11-19T12:27:53;20.92;;;3.08;;
84048;SDS011;74136;51.684;7.862;2023-11-19T12:30:27;24.08;;;3.30;;
84048;SDS011;74136;51.684;7.862;2023-11-19T12:32:54;18.27;;;2.55;;
84048;SDS011;74136;51.684;7.862;2023-11-19T12:35:20;24.90;;;4.13;;
84048;SDS011;74136;51.684;7.862;2023-11-19T12:37:49;22.52;;;3.63;;
84048;SDS011;74136;51.684;7.862;2023-11-19T12:40:19;18.75;;;3.70;;
84048;SDS011;74136;51.684;7.862;2023-11-19T12:42:49;19.00;;;3.00;;
84048;SDS011;74136;51.684;7.862;2023-11-19T12:45:15;24.98;;;4.47;;
84048;SDS011;74136;51.684;7.862;2023-11-19T12:47:42;20.60;;;3.08;;
84048;SDS011;74136;51.684;7.862;2023-11-19T12:50:09;16.55;;;2.92;;
84048;SDS011;74136;51.684;7.862;2023-11-19T12:52:38;18.45;;;3.00;;
84048;SDS011;74136;51.684;7.862;2023-11-19T12:55:04;18.65;;;3.08;;
84048;SDS011;74136;51.684;7.862;2023-11-19T12:57:40;20.05;;;3.72;;
84048;SDS011;74136;51.684;7.862;2023-11-19T13:00:06;20.73;;;3.25;;
84048;SDS011;74136;51.684;7.862;2023-11-19T13:07:48;19.50;;;3.30;;
84048;SDS011;74136;51.684;7.862;2023-11-19T13:10:13;20.50;;;3.53;;
84048;SDS011;74136;51.684;7.862;2023-11-19T13:12:39;18.63;;;3.50;;
84048;SDS011;74136;51.684;7.862;2023-11-19T13:15:04;24.42;;;3.72;;
84048;SDS011;74136;51.684;7.862;2023-11-19T13:17:30;19.25;;;3.45;;
84048;SDS011;74136;51.684;7.862;2023-11-19T13:19:56;14.60;;;2.22;;
84048;SDS011;74136;51.684;7.862;2023-11-19T13:22:22;22.65;;;3.47;;
84048;SDS011;74136;51.684;7.862;2023-11-19T13:24:47;22.10;;;2.85;;
84048;SDS011;74136;51.684;7.862;2023-11-19T13:27:13;19.58;;;3.05;;
84048;SDS011;74136;51.684;7.862;2023-11-19T13:29:38;20.23;;;2.75;;
84048;SDS011;74136;51.684;7.862;2023-11-19T13:32:04;17.23;;;2.80;;
84048;SDS011;74136;51.684;7.862;2023-11-19T13:34:30;17.60;;;2.90;;
84048;SDS011;74136;51.684;7.862;2023-11-19T13:36:56;20.52;;;3.30;;
84048;SDS011;74136;51.684;7.862;2023-11-19T13:39:21;18.88;;;3.35;;
84048;SDS011;74136;51.684;7.862;2023-11-19T13:41:48;19.10;;;3.33;;
84048;SDS011;74136;51.684;7.862;2023-11-19T13:44:15;22.52;;;3.00;;
84048;SDS011;74136;51.684;7.862;2023-11-19T13:46:41;17.30;;;2.90;;
84048;SDS011;74136;51.684;7.862;2023-11-19T13:49:06;15.80;;;2.85;;
84048;SDS011;74136;51.684;7.862;2023-11-19T13:51:32;19.13;;;3.90;;
84048;SDS011;74136;51.684;7.862;2023-11-19T13:53:57;16.98;;;2.60;;
84048;SDS011;74136;51.684;7.862;2023-11-19T13:56:23;20.80;;;3.03;;
84048;SDS011;74136;51.684;7.862;2023-11-19T13:58:48;22.00;;;4.00;;
84048;SDS011;74136;51.684;7.862;2023-11-19T14:01:14;16.08;;;2.42;;
84048;SDS011;74136;51.684;7.862;2023-11-19T14:03:39;14.25;;;2.63;;
84048;SDS011;74136;51.684;7.862;2023-11-19T14:06:05;16.88;;;2.95;;
84048;SDS011;74136;51.684;7.862;2023-11-19T14:08:33;16.35;;;4.00;;
84048;SDS011;74136;51.684;7.862;2023-11-19T14:10:58;16.77;;;2.22;;
84048;SDS011;74136;51.684;7.862;2023-11-19T14:13:24;17.77;;;3.67;;
84048;SDS011;74136;51.684;7.862;2023-11-19T14:15:49;18.70;;;2.90;;
84048;SDS011;74136;51.684;7.862;2023-11-19T14:18:15;20.88;;;3.22;;
84048;SDS011;74136;51.684;7.862;2023-11-19T14:20:41;17.95;;;3.20;;
84048;SDS011;74136;51.684;7.862;2023-11-19T14:23:06;17.25;;;3.10;;
84048;SDS011;74136;51.684;7.862;2023-11-19T14:25:32;21.98;;;3.00;;
84048;SDS011;74136;51.684;7.862;2023-11-19T14:27:57;17.48;;;3.33;;
84048;SDS011;74136;51.684;7.862;2023-11-19T14:30:22;12.32;;;2.67;;
84048;SDS011;74136;51.684;7.862;2023-11-19T14:32:47;14.20;;;2.42;;
84048;SDS011;74136;51.684;7.862;2023-11-19T14:35:14;18.70;;;3.05;;
84048;SDS011;74136;51.684;7.862;2023-11-19T14:37:40;20.40;;;3.38;;
84048;SDS011;74136;51.684;7.862;2023-11-19T14:40:05;21.40;;;3.15;;
84048;SDS011;74136;51.684;7.862;2023-11-19T14:42:36;13.70;;;2.42;;
84048;SDS011;74136;51.684;7.862;2023-11-19T14:45:02;24.08;;;2.92;;
84048;SDS011;74136;51.684;7.862;2023-11-19T14:47:27;19.80;;;2.70;;
84048;SDS011;74136;51.684;7.862;2023-11-19T14:49:54;17.08;;;3.42;;
84048;SDS011;74136;51.684;7.862;2023-11-19T14:52:19;17.77;;;3.30;;
84048;SDS011;74136;51.684;7.862;2023-11-19T14:54:44;18.05;;;3.08;;
84048;SDS011;74136;51.684;7.862;2023-11-19T14:57:10;20.52;;;3.38;;
84048;SDS011;74136;51.684;7.862;2023-11-19T14:59:36;11.98;;;2.33;;
84048;SDS011;74136;51.684;7.862;2023-11-19T15:02:02;15.32;;;2.70;;
84048;SDS011;74136;51.684;7.862;2023-11-19T15:04:28;19.30;;;3.53;;
84048;SDS011;74136;51.684;7.862;2023-11-19T15:06:56;20.70;;;3.53;;
84048;SDS011;74136;51.684;7.862;2023-11-19T15:09:22;19.95;;;3.55;;